sensor_id;sensor_type;location;lat;lon;timestamp;P1;durP1;ratioP1;P2;durP2;ratioP2
12665;SDS011;58531;59.050;17.416;2022-09-19T00:01:42;0.50;;;0.50;;
12665;SDS011;58531;59.050;17.416;2022-09-19T00:04:12;1.87;;;0.70;;
12665;SDS011;58531;59.050;17.416;2022-09-19T00:06:41;1.00;;;0.53;;
12665;SDS011;58531;59.050;17.416;2022-09-19T00:09:10;1.60;;;0.60;;
12665;SDS011;58531;59.050;17.416;2022-09-19T00:11:38;0.80;;;0.80;;
12665;SDS011;58531;59.050;17.416;2022-09-19T00:14:06;0.50;;;0.50;;
12665;SDS011;58531;59.050;17.416;2022-09-19T00:16:35;0.40;;;0.40;;
12665;SDS011;58531;59.050;17.416;2022-09-19T00:19:04;0.80;;;0.70;;
12665;SDS011;58531;59.050;17.416;2022-09-19T00:21:34;0.53;;;0.50;;
12665;SDS011;58531;59.050;17.416;2022-09-19T00:24:04;0.80;;;0.60;;
12665;SDS011;58531;59.050;17.416;2022-09-19T00:26:49;1.40;;;0.60;;
12665;SDS011;58531;59.050;17.416;2022-09-19T00:29:20;0.97;;;0.80;;
12665;SDS011;58531;59.050;17.416;2022-09-19T00:31:48;0.70;;;0.70;;
12665;SDS011;58531;59.050;17.416;2022-09-19T00:34:16;0.60;;;0.60;;
12665;SDS011;58531;59.050;17.416;2022-09-19T00:36:43;0.60;;;0.60;;
12665;SDS011;58531;59.050;17.416;2022-09-19T00:39:13;1.07;;;0.60;;
12665;SDS011;58531;59.050;17.416;2022-09-19T00:41:42;0.70;;;0.70;;
12665;SDS011;58531;59.050;17.416;2022-09-19T00:47:09;1.47;;;0.70;;
12665;SDS011;58531;59.050;17.416;2022-09-19T00:49:40;1.03;;;0.77;;
12665;SDS011;58531;59.050;17.416;2022-09-19T00:52:12;0.90;;;0.70;;
12665;SDS011;58531;59.050;17.416;2022-09-19T00:54:45;0.80;;;0.70;;
12665;SDS011;58531;59.050;17.416;2022-09-19T00:57:14;0.70;;;0.70;;
12665;SDS011;58531;59.050;17.416;2022-09-19T00:59:44;1.57;;;0.90;;
12665;SDS011;58531;59.050;17.416;2022-09-19T01:02:13;0.77;;;0.77;;
12665;SDS011;58531;59.050;17.416;2022-09-19T01:04:43;0.97;;;0.67;;
12665;SDS011;58531;59.050;17.416;2022-09-19T01:07:11;0.63;;;0.63;;
12665;SDS011;58531;59.050;17.416;2022-09-19T01:09:45;1.63;;;0.53;;
12665;SDS011;58531;59.050;17.416;2022-09-19T01:12:25;1.30;;;0.60;;
12665;SDS011;58531;59.050;17.416;2022-09-19T01:15:11;0.60;;;0.60;;
12665;SDS011;58531;59.050;17.416;2022-09-19T01:17:46;0.50;;;0.50;;
12665;SDS011;58531;59.050;17.416;2022-09-19T01:24:01;0.70;;;0.70;;
12665;SDS011;58531;59.050;17.416;2022-09-19T01:26:58;0.83;;;0.60;;
12665;SDS011;58531;59.050;17.416;2022-09-19T01:29:38;0.80;;;0.80;;
12665;SDS011;58531;59.050;17.416;2022-09-19T01:32:08;2.13;;;0.80;;
12665;SDS011;58531;59.050;17.416;2022-09-19T01:34:40;0.60;;;0.60;;
12665;SDS011;58531;59.050;17.416;2022-09-19T01:37:11;2.17;;;0.60;;
12665;SDS011;58531;59.050;17.416;2022-09-19T01:39:44;0.47;;;0.47;;
12665;SDS011;58531;59.050;17.416;2022-09-19T01:42:13;1.60;;;0.50;;
12665;SDS011;58531;59.050;17.416;2022-09-19T01:44:42;0.60;;;0.50;;
12665;SDS011;58531;59.050;17.416;2022-09-19T01:47:12;0.40;;;0.40;;
12665;SDS011;58531;59.050;17.416;2022-09-19T01:49:48;0.70;;;0.70;;
12665;SDS011;58531;59.050;17.416;2022-09-19T01:52:21;1.17;;;0.50;;
12665;SDS011;58531;59.050;17.416;2022-09-19T01:54:59;1.20;;;0.50;;
12665;SDS011;58531;59.050;17.416;2022-09-19T01:57:36;0.40;;;0.40;;
12665;SDS011;58531;59.050;17.416;2022-09-19T02:00:12;0.53;;;0.40;;
12665;SDS011;58531;59.050;17.416;2022-09-19T02:02:45;0.47;;;0.40;;
12665;SDS011;58531;59.050;17.416;2022-09-19T02:05:20;0.60;;;0.53;;
12665;SDS011;58531;59.050;17.416;2022-09-19T02:07:58;0.50;;;0.50;;
12665;SDS011;58531;59.050;17.416;2022-09-19T02:10:32;1.70;;;0.63;;
12665;SDS011;58531;59.050;17.416;2022-09-19T02:13:05;1.10;;;0.30;;
12665;SDS011;58531;59.050;17.416;2022-09-19T02:15:36;0.40;;;0.40;;
12665;SDS011;58531;59.050;17.416;2022-09-19T02:18:07;0.47;;;0.40;;
12665;SDS011;58531;59.050;17.416;2022-09-19T02:20:40;1.33;;;0.50;;
12665;SDS011;58531;59.050;17.416;2022-09-19T02:23:09;0.83;;;0.40;;
12665;SDS011;58531;59.050;17.416;2022-09-19T02:25:42;0.50;;;0.50;;
12665;SDS011;58531;59.050;17.416;2022-09-19T02:28:12;0.40;;;0.40;;
12665;SDS011;58531;59.050;17.416;2022-09-19T02:30:44;0.33;;;0.33;;
12665;SDS011;58531;59.050;17.416;2022-09-19T02:33:12;1.27;;;0.40;;
12665;SDS011;58531;59.050;17.416;2022-09-19T02:35:41;0.33;;;0.33;;
12665;SDS011;58531;59.050;17.416;2022-09-19T02:38:16;1.23;;;0.40;;
12665;SDS011;58531;59.050;17.416;2022-09-19T02:40:51;0.50;;;0.50;;
12665;SDS011;58531;59.050;17.416;2022-09-19T02:43:24;0.40;;;0.40;;
12665;SDS011;58531;59.050;17.416;2022-09-19T02:46:04;1.90;;;0.40;;
12665;SDS011;58531;59.050;17.416;2022-09-19T02:48:37;0.63;;;0.50;;
12665;SDS011;58531;59.050;17.416;2022-09-19T02:51:11;0.47;;;0.43;;
12665;SDS011;58531;59.050;17.416;2022-09-19T02:53:42;0.33;;;0.33;;
12665;SDS011;58531;59.050;17.416;2022-09-19T02:56:13;0.47;;;0.33;;
12665;SDS011;58531;59.050;17.416;2022-09-19T02:58:44;0.60;;;0.43;;
12665;SDS011;58531;59.050;17.416;2022-09-19T03:01:19;0.40;;;0.40;;
12665;SDS011;58531;59.050;17.416;2022-09-19T03:03:50;0.40;;;0.40;;
12665;SDS011;58531;59.050;17.416;2022-09-19T03:06:39;1.03;;;0.53;;
12665;SDS011;58531;59.050;17.416;2022-09-19T03:09:11;0.73;;;0.50;;
12665;SDS011;58531;59.050;17.416;2022-09-19T03:11:42;0.80;;;0.43;;
12665;SDS011;58531;59.050;17.416;2022-09-19T03:14:16;0.37;;;0.37;;
12665;SDS011;58531;59.050;17.416;2022-09-19T03:16:45;0.60;;;0.40;;
12665;SDS011;58531;59.050;17.416;2022-09-19T03:19:16;1.63;;;0.40;;
12665;SDS011;58531;59.050;17.416;2022-09-19T03:21:43;1.70;;;0.50;;
12665;SDS011;58531;59.050;17.416;2022-09-19T03:24:10;0.40;;;0.40;;
12665;SDS011;58531;59.050;17.416;2022-09-19T03:26:37;0.50;;;0.50;;
12665;SDS011;58531;59.050;17.416;2022-09-19T03:29:05;2.47;;;0.47;;
12665;SDS011;58531;59.050;17.416;2022-09-19T03:31:34;1.43;;;0.63;;
12665;SDS011;58531;59.050;17.416;2022-09-19T03:34:03;0.50;;;0.43;;
12665;SDS011;58531;59.050;17.416;2022-09-19T03:36:30;0.73;;;0.50;;
12665;SDS011;58531;59.050;17.416;2022-09-19T03:38:58;0.60;;;0.47;;
12665;SDS011;58531;59.050;17.416;2022-09-19T03:41:28;1.60;;;0.63;;
12665;SDS011;58531;59.050;17.416;2022-09-19T03:43:57;0.70;;;0.40;;
12665;SDS011;58531;59.050;17.416;2022-09-19T03:46:25;2.23;;;0.50;;
12665;SDS011;58531;59.050;17.416;2022-09-19T03:48:53;1.23;;;0.50;;
12665;SDS011;58531;59.050;17.416;2022-09-19T03:51:21;1.20;;;0.50;;
12665;SDS011;58531;59.050;17.416;2022-09-19T03:53:48;2.00;;;0.60;;
12665;SDS011;58531;59.050;17.416;2022-09-19T03:56:15;0.70;;;0.57;;
12665;SDS011;58531;59.050;17.416;2022-09-19T03:58:43;0.50;;;0.50;;
12665;SDS011;58531;59.050;17.416;2022-09-19T04:01:10;0.83;;;0.70;;
12665;SDS011;58531;59.050;17.416;2022-09-19T04:03:40;1.60;;;0.63;;
12665;SDS011;58531;59.050;17.416;2022-09-19T04:06:08;3.60;;;0.87;;
12665;SDS011;58531;59.050;17.416;2022-09-19T04:08:37;2.53;;;0.60;;
12665;SDS011;58531;59.050;17.416;2022-09-19T04:11:04;1.47;;;0.50;;
12665;SDS011;58531;59.050;17.416;2022-09-19T04:13:32;0.70;;;0.70;;
12665;SDS011;58531;59.050;17.416;2022-09-19T04:15:59;4.20;;;0.70;;
12665;SDS011;58531;59.050;17.416;2022-09-19T04:18:26;0.73;;;0.60;;
12665;SDS011;58531;59.050;17.416;2022-09-19T04:20:54;1.00;;;0.60;;
12665;SDS011;58531;59.050;17.416;2022-09-19T04:23:21;2.53;;;0.70;;
12665;SDS011;58531;59.050;17.416;2022-09-19T04:25:51;0.63;;;0.50;;
12665;SDS011;58531;59.050;17.416;2022-09-19T04:28:19;1.27;;;0.60;;
12665;SDS011;58531;59.050;17.416;2022-09-19T04:30:46;1.73;;;0.60;;
12665;SDS011;58531;59.050;17.416;2022-09-19T04:33:14;0.53;;;0.53;;
12665;SDS011;58531;59.050;17.416;2022-09-19T04:35:43;1.90;;;0.53;;
12665;SDS011;58531;59.050;17.416;2022-09-19T04:38:11;3.20;;;0.77;;
12665;SDS011;58531;59.050;17.416;2022-09-19T04:40:42;1.23;;;0.77;;
12665;SDS011;58531;59.050;17.416;2022-09-19T04:43:13;1.77;;;0.70;;
12665;SDS011;58531;59.050;17.416;2022-09-19T04:45:41;0.80;;;0.70;;
12665;SDS011;58531;59.050;17.416;2022-09-19T04:48:12;1.83;;;0.70;;
12665;SDS011;58531;59.050;17.416;2022-09-19T04:50:39;1.90;;;0.70;;
12665;SDS011;58531;59.050;17.416;2022-09-19T04:53:06;0.60;;;0.60;;
12665;SDS011;58531;59.050;17.416;2022-09-19T04:55:38;1.37;;;0.70;;
12665;SDS011;58531;59.050;17.416;2022-09-19T04:58:05;1.80;;;0.83;;
12665;SDS011;58531;59.050;17.416;2022-09-19T05:00:33;3.13;;;0.60;;
12665;SDS011;58531;59.050;17.416;2022-09-19T05:03:04;0.80;;;0.50;;
12665;SDS011;58531;59.050;17.416;2022-09-19T05:05:33;0.83;;;0.43;;
12665;SDS011;58531;59.050;17.416;2022-09-19T05:08:04;1.73;;;0.50;;
12665;SDS011;58531;59.050;17.416;2022-09-19T05:10:32;0.60;;;0.53;;
12665;SDS011;58531;59.050;17.416;2022-09-19T05:12:59;0.73;;;0.60;;
12665;SDS011;58531;59.050;17.416;2022-09-19T05:15:26;1.53;;;0.50;;
12665;SDS011;58531;59.050;17.416;2022-09-19T05:17:54;1.37;;;0.60;;
12665;SDS011;58531;59.050;17.416;2022-09-19T05:20:22;0.77;;;0.70;;
12665;SDS011;58531;59.050;17.416;2022-09-19T05:22:51;0.70;;;0.60;;
12665;SDS011;58531;59.050;17.416;2022-09-19T05:25:21;1.13;;;0.53;;
12665;SDS011;58531;59.050;17.416;2022-09-19T05:27:48;3.43;;;0.57;;
12665;SDS011;58531;59.050;17.416;2022-09-19T05:30:15;0.63;;;0.63;;
12665;SDS011;58531;59.050;17.416;2022-09-19T05:32:42;0.50;;;0.50;;
12665;SDS011;58531;59.050;17.416;2022-09-19T05:35:11;0.87;;;0.43;;
12665;SDS011;58531;59.050;17.416;2022-09-19T05:37:39;0.47;;;0.40;;
12665;SDS011;58531;59.050;17.416;2022-09-19T05:40:07;0.53;;;0.53;;
12665;SDS011;58531;59.050;17.416;2022-09-19T05:42:38;0.63;;;0.40;;
12665;SDS011;58531;59.050;17.416;2022-09-19T05:45:06;2.10;;;0.60;;
12665;SDS011;58531;59.050;17.416;2022-09-19T05:47:34;1.27;;;0.50;;
12665;SDS011;58531;59.050;17.416;2022-09-19T05:50:01;1.23;;;0.40;;
12665;SDS011;58531;59.050;17.416;2022-09-19T05:52:29;1.47;;;0.50;;
12665;SDS011;58531;59.050;17.416;2022-09-19T05:55:13;0.87;;;0.70;;
12665;SDS011;58531;59.050;17.416;2022-09-19T05:57:40;0.67;;;0.67;;
12665;SDS011;58531;59.050;17.416;2022-09-19T06:00:07;0.97;;;0.60;;
12665;SDS011;58531;59.050;17.416;2022-09-19T06:02:36;0.60;;;0.60;;
12665;SDS011;58531;59.050;17.416;2022-09-19T06:05:03;0.60;;;0.57;;
12665;SDS011;58531;59.050;17.416;2022-09-19T06:07:31;0.83;;;0.50;;
12665;SDS011;58531;59.050;17.416;2022-09-19T06:09:58;1.03;;;0.60;;
12665;SDS011;58531;59.050;17.416;2022-09-19T06:12:25;1.40;;;0.60;;
12665;SDS011;58531;59.050;17.416;2022-09-19T06:14:52;0.40;;;0.40;;
12665;SDS011;58531;59.050;17.416;2022-09-19T06:17:19;0.20;;;0.20;;
12665;SDS011;58531;59.050;17.416;2022-09-19T06:19:46;0.30;;;0.30;;
12665;SDS011;58531;59.050;17.416;2022-09-19T06:22:12;0.43;;;0.40;;
12665;SDS011;58531;59.050;17.416;2022-09-19T06:24:41;0.73;;;0.47;;
12665;SDS011;58531;59.050;17.416;2022-09-19T06:27:07;0.80;;;0.50;;
12665;SDS011;58531;59.050;17.416;2022-09-19T06:29:34;1.00;;;0.43;;
12665;SDS011;58531;59.050;17.416;2022-09-19T06:32:01;1.53;;;0.57;;
12665;SDS011;58531;59.050;17.416;2022-09-19T06:34:28;0.50;;;0.43;;
12665;SDS011;58531;59.050;17.416;2022-09-19T06:36:55;1.40;;;0.53;;
12665;SDS011;58531;59.050;17.416;2022-09-19T06:39:22;2.40;;;0.40;;
12665;SDS011;58531;59.050;17.416;2022-09-19T06:41:50;0.60;;;0.40;;
12665;SDS011;58531;59.050;17.416;2022-09-19T06:44:17;0.40;;;0.40;;
12665;SDS011;58531;59.050;17.416;2022-09-19T06:46:44;0.43;;;0.40;;
12665;SDS011;58531;59.050;17.416;2022-09-19T06:49:11;0.73;;;0.40;;
12665;SDS011;58531;59.050;17.416;2022-09-19T06:51:37;0.50;;;0.47;;
12665;SDS011;58531;59.050;17.416;2022-09-19T06:54:04;0.50;;;0.50;;
12665;SDS011;58531;59.050;17.416;2022-09-19T06:56:31;0.47;;;0.33;;
12665;SDS011;58531;59.050;17.416;2022-09-19T06:58:59;1.03;;;0.40;;
12665;SDS011;58531;59.050;17.416;2022-09-19T07:01:26;0.50;;;0.40;;
12665;SDS011;58531;59.050;17.416;2022-09-19T07:03:53;0.40;;;0.40;;
12665;SDS011;58531;59.050;17.416;2022-09-19T07:06:19;1.67;;;0.40;;
12665;SDS011;58531;59.050;17.416;2022-09-19T07:08:46;3.40;;;0.40;;
12665;SDS011;58531;59.050;17.416;2022-09-19T07:11:13;0.73;;;0.50;;
12665;SDS011;58531;59.050;17.416;2022-09-19T07:13:39;0.63;;;0.40;;
12665;SDS011;58531;59.050;17.416;2022-09-19T07:16:08;0.20;;;0.20;;
12665;SDS011;58531;59.050;17.416;2022-09-19T07:18:34;0.70;;;0.40;;
12665;SDS011;58531;59.050;17.416;2022-09-19T07:21:02;1.03;;;0.30;;
12665;SDS011;58531;59.050;17.416;2022-09-19T07:23:30;1.00;;;0.30;;
12665;SDS011;58531;59.050;17.416;2022-09-19T07:25:57;0.90;;;0.30;;
12665;SDS011;58531;59.050;17.416;2022-09-19T07:28:24;0.53;;;0.33;;
12665;SDS011;58531;59.050;17.416;2022-09-19T07:30:52;1.27;;;0.40;;
12665;SDS011;58531;59.050;17.416;2022-09-19T07:33:20;0.40;;;0.40;;
12665;SDS011;58531;59.050;17.416;2022-09-19T07:35:47;0.40;;;0.40;;
12665;SDS011;58531;59.050;17.416;2022-09-19T07:38:14;0.40;;;0.40;;
12665;SDS011;58531;59.050;17.416;2022-09-19T07:40:42;0.40;;;0.40;;
12665;SDS011;58531;59.050;17.416;2022-09-19T07:43:09;0.20;;;0.20;;
12665;SDS011;58531;59.050;17.416;2022-09-19T07:45:38;1.03;;;0.30;;
12665;SDS011;58531;59.050;17.416;2022-09-19T07:48:09;0.93;;;0.47;;
12665;SDS011;58531;59.050;17.416;2022-09-19T07:50:37;0.37;;;0.30;;
12665;SDS011;58531;59.050;17.416;2022-09-19T07:53:05;2.47;;;0.50;;
12665;SDS011;58531;59.050;17.416;2022-09-19T07:55:33;0.50;;;0.37;;
12665;SDS011;58531;59.050;17.416;2022-09-19T07:58:01;0.90;;;0.30;;
12665;SDS011;58531;59.050;17.416;2022-09-19T08:00:30;0.40;;;0.40;;
12665;SDS011;58531;59.050;17.416;2022-09-19T08:02:58;1.20;;;0.30;;
12665;SDS011;58531;59.050;17.416;2022-09-19T08:05:26;0.20;;;0.20;;
12665;SDS011;58531;59.050;17.416;2022-09-19T08:07:57;0.50;;;0.30;;
12665;SDS011;58531;59.050;17.416;2022-09-19T08:10:24;0.30;;;0.20;;
12665;SDS011;58531;59.050;17.416;2022-09-19T08:12:51;0.80;;;0.40;;
12665;SDS011;58531;59.050;17.416;2022-09-19T08:15:18;0.30;;;0.30;;
12665;SDS011;58531;59.050;17.416;2022-09-19T08:17:53;0.30;;;0.30;;
12665;SDS011;58531;59.050;17.416;2022-09-19T08:20:22;0.33;;;0.33;;
12665;SDS011;58531;59.050;17.416;2022-09-19T08:22:49;1.00;;;0.50;;
12665;SDS011;58531;59.050;17.416;2022-09-19T08:25:17;0.20;;;0.20;;
12665;SDS011;58531;59.050;17.416;2022-09-19T08:27:45;0.30;;;0.30;;
12665;SDS011;58531;59.050;17.416;2022-09-19T08:30:12;1.33;;;0.40;;
12665;SDS011;58531;59.050;17.416;2022-09-19T08:32:38;0.27;;;0.27;;
12665;SDS011;58531;59.050;17.416;2022-09-19T08:35:05;0.80;;;0.30;;
12665;SDS011;58531;59.050;17.416;2022-09-19T08:37:32;0.30;;;0.30;;
12665;SDS011;58531;59.050;17.416;2022-09-19T08:39:59;0.30;;;0.20;;
12665;SDS011;58531;59.050;17.416;2022-09-19T08:42:43;0.40;;;0.40;;
12665;SDS011;58531;59.050;17.416;2022-09-19T08:45:22;1.50;;;0.40;;
12665;SDS011;58531;59.050;17.416;2022-09-19T08:48:01;2.90;;;0.50;;
12665;SDS011;58531;59.050;17.416;2022-09-19T08:50:36;0.73;;;0.37;;
12665;SDS011;58531;59.050;17.416;2022-09-19T08:53:06;0.60;;;0.40;;
12665;SDS011;58531;59.050;17.416;2022-09-19T08:55:46;0.47;;;0.40;;
12665;SDS011;58531;59.050;17.416;2022-09-19T08:58:18;0.40;;;0.30;;
12665;SDS011;58531;59.050;17.416;2022-09-19T09:00:48;0.30;;;0.30;;
12665;SDS011;58531;59.050;17.416;2022-09-19T09:03:19;0.30;;;0.30;;
12665;SDS011;58531;59.050;17.416;2022-09-19T09:05:52;0.40;;;0.40;;
12665;SDS011;58531;59.050;17.416;2022-09-19T09:08:28;1.33;;;0.50;;
12665;SDS011;58531;59.050;17.416;2022-09-19T09:11:04;0.50;;;0.30;;
12665;SDS011;58531;59.050;17.416;2022-09-19T09:13:49;0.57;;;0.30;;
12665;SDS011;58531;59.050;17.416;2022-09-19T09:16:25;0.50;;;0.40;;
12665;SDS011;58531;59.050;17.416;2022-09-19T09:19:05;0.33;;;0.30;;
12665;SDS011;58531;59.050;17.416;2022-09-19T09:21:47;1.73;;;0.50;;
12665;SDS011;58531;59.050;17.416;2022-09-19T09:24:24;0.33;;;0.33;;
12665;SDS011;58531;59.050;17.416;2022-09-19T09:26:54;0.40;;;0.40;;
12665;SDS011;58531;59.050;17.416;2022-09-19T09:29:28;0.37;;;0.30;;
12665;SDS011;58531;59.050;17.416;2022-09-19T09:32:00;0.30;;;0.30;;
12665;SDS011;58531;59.050;17.416;2022-09-19T09:34:34;0.60;;;0.30;;
12665;SDS011;58531;59.050;17.416;2022-09-19T09:37:06;0.73;;;0.33;;
12665;SDS011;58531;59.050;17.416;2022-09-19T09:39:42;0.40;;;0.30;;
12665;SDS011;58531;59.050;17.416;2022-09-19T09:42:25;0.30;;;0.20;;
12665;SDS011;58531;59.050;17.416;2022-09-19T09:45:00;0.30;;;0.30;;
12665;SDS011;58531;59.050;17.416;2022-09-19T09:47:39;0.37;;;0.30;;
12665;SDS011;58531;59.050;17.416;2022-09-19T09:50:20;0.40;;;0.40;;
12665;SDS011;58531;59.050;17.416;2022-09-19T09:52:59;0.40;;;0.30;;
12665;SDS011;58531;59.050;17.416;2022-09-19T09:55:35;0.30;;;0.30;;
12665;SDS011;58531;59.050;17.416;2022-09-19T09:58:29;0.60;;;0.30;;
12665;SDS011;58531;59.050;17.416;2022-09-19T10:01:11;0.30;;;0.30;;
12665;SDS011;58531;59.050;17.416;2022-09-19T10:04:07;3.23;;;0.33;;
12665;SDS011;58531;59.050;17.416;2022-09-19T10:06:41;0.20;;;0.20;;
12665;SDS011;58531;59.050;17.416;2022-09-19T10:09:18;1.17;;;0.43;;
12665;SDS011;58531;59.050;17.416;2022-09-19T10:11:49;0.30;;;0.30;;
12665;SDS011;58531;59.050;17.416;2022-09-19T10:14:22;0.17;;;0.17;;
12665;SDS011;58531;59.050;17.416;2022-09-19T10:16:55;0.40;;;0.40;;
12665;SDS011;58531;59.050;17.416;2022-09-19T10:19:27;1.17;;;0.43;;
12665;SDS011;58531;59.050;17.416;2022-09-19T10:21:59;1.80;;;0.30;;
12665;SDS011;58531;59.050;17.416;2022-09-19T10:24:43;1.73;;;0.40;;
12665;SDS011;58531;59.050;17.416;2022-09-19T10:27:13;0.27;;;0.20;;
12665;SDS011;58531;59.050;17.416;2022-09-19T10:29:49;1.30;;;0.30;;
12665;SDS011;58531;59.050;17.416;2022-09-19T10:32:19;0.97;;;0.40;;
12665;SDS011;58531;59.050;17.416;2022-09-19T10:34:48;0.23;;;0.23;;
12665;SDS011;58531;59.050;17.416;2022-09-19T10:37:16;0.40;;;0.20;;
12665;SDS011;58531;59.050;17.416;2022-09-19T10:39:44;0.40;;;0.30;;
12665;SDS011;58531;59.050;17.416;2022-09-19T10:42:30;0.20;;;0.20;;
12665;SDS011;58531;59.050;17.416;2022-09-19T10:45:02;0.20;;;0.20;;
12665;SDS011;58531;59.050;17.416;2022-09-19T10:47:43;0.57;;;0.23;;
12665;SDS011;58531;59.050;17.416;2022-09-19T10:50:13;0.80;;;0.43;;
12665;SDS011;58531;59.050;17.416;2022-09-19T10:52:42;0.30;;;0.30;;
12665;SDS011;58531;59.050;17.416;2022-09-19T10:55:12;1.13;;;0.40;;
12665;SDS011;58531;59.050;17.416;2022-09-19T10:57:42;0.50;;;0.30;;
12665;SDS011;58531;59.050;17.416;2022-09-19T11:00:22;1.90;;;0.50;;
12665;SDS011;58531;59.050;17.416;2022-09-19T11:02:59;0.33;;;0.33;;
12665;SDS011;58531;59.050;17.416;2022-09-19T11:05:29;1.93;;;0.40;;
12665;SDS011;58531;59.050;17.416;2022-09-19T11:07:56;0.30;;;0.30;;
12665;SDS011;58531;59.050;17.416;2022-09-19T11:10:35;0.50;;;0.30;;
12665;SDS011;58531;59.050;17.416;2022-09-19T11:13:04;0.20;;;0.20;;
12665;SDS011;58531;59.050;17.416;2022-09-19T11:15:41;0.40;;;0.40;;
12665;SDS011;58531;59.050;17.416;2022-09-19T11:18:22;0.37;;;0.37;;
12665;SDS011;58531;59.050;17.416;2022-09-19T11:21:03;0.83;;;0.40;;
12665;SDS011;58531;59.050;17.416;2022-09-19T11:26:29;0.93;;;0.43;;
12665;SDS011;58531;59.050;17.416;2022-09-19T11:29:15;0.77;;;0.30;;
12665;SDS011;58531;59.050;17.416;2022-09-19T11:32:08;2.50;;;0.40;;
12665;SDS011;58531;59.050;17.416;2022-09-19T11:34:47;1.93;;;0.30;;
12665;SDS011;58531;59.050;17.416;2022-09-19T11:37:27;2.13;;;0.40;;
12665;SDS011;58531;59.050;17.416;2022-09-19T11:40:11;0.20;;;0.20;;
12665;SDS011;58531;59.050;17.416;2022-09-19T11:42:50;0.70;;;0.50;;
12665;SDS011;58531;59.050;17.416;2022-09-19T11:45:29;0.67;;;0.30;;
12665;SDS011;58531;59.050;17.416;2022-09-19T11:48:09;0.50;;;0.30;;
12665;SDS011;58531;59.050;17.416;2022-09-19T11:50:50;0.33;;;0.30;;
12665;SDS011;58531;59.050;17.416;2022-09-19T11:56:28;0.93;;;0.40;;
12665;SDS011;58531;59.050;17.416;2022-09-19T11:59:11;1.17;;;0.43;;
12665;SDS011;58531;59.050;17.416;2022-09-19T12:01:51;0.87;;;0.40;;
12665;SDS011;58531;59.050;17.416;2022-09-19T12:04:34;0.83;;;0.40;;
12665;SDS011;58531;59.050;17.416;2022-09-19T12:07:15;0.27;;;0.27;;
12665;SDS011;58531;59.050;17.416;2022-09-19T12:09:52;1.23;;;0.30;;
12665;SDS011;58531;59.050;17.416;2022-09-19T12:12:24;1.00;;;0.30;;
12665;SDS011;58531;59.050;17.416;2022-09-19T12:14:57;0.20;;;0.20;;
12665;SDS011;58531;59.050;17.416;2022-09-19T12:17:41;0.83;;;0.60;;
12665;SDS011;58531;59.050;17.416;2022-09-19T12:20:16;0.87;;;0.30;;
12665;SDS011;58531;59.050;17.416;2022-09-19T12:22:51;0.63;;;0.40;;
12665;SDS011;58531;59.050;17.416;2022-09-19T12:25:22;1.27;;;0.30;;
12665;SDS011;58531;59.050;17.416;2022-09-19T12:27:53;1.03;;;0.30;;
12665;SDS011;58531;59.050;17.416;2022-09-19T12:30:28;0.53;;;0.37;;
12665;SDS011;58531;59.050;17.416;2022-09-19T12:33:00;3.70;;;0.30;;
12665;SDS011;58531;59.050;17.416;2022-09-19T12:35:35;0.50;;;0.33;;
12665;SDS011;58531;59.050;17.416;2022-09-19T12:38:14;0.47;;;0.30;;
12665;SDS011;58531;59.050;17.416;2022-09-19T12:40:51;0.30;;;0.30;;
12665;SDS011;58531;59.050;17.416;2022-09-19T12:43:23;0.30;;;0.30;;
12665;SDS011;58531;59.050;17.416;2022-09-19T12:46:00;0.40;;;0.40;;
12665;SDS011;58531;59.050;17.416;2022-09-19T12:48:38;0.53;;;0.30;;
12665;SDS011;58531;59.050;17.416;2022-09-19T12:51:13;0.40;;;0.40;;
12665;SDS011;58531;59.050;17.416;2022-09-19T12:53:48;0.83;;;0.30;;
12665;SDS011;58531;59.050;17.416;2022-09-19T12:56:28;0.40;;;0.40;;
12665;SDS011;58531;59.050;17.416;2022-09-19T12:58:59;0.30;;;0.30;;
12665;SDS011;58531;59.050;17.416;2022-09-19T13:01:33;0.47;;;0.30;;
12665;SDS011;58531;59.050;17.416;2022-09-19T13:04:08;1.17;;;0.40;;
12665;SDS011;58531;59.050;17.416;2022-09-19T13:06:52;0.67;;;0.40;;
12665;SDS011;58531;59.050;17.416;2022-09-19T13:09:26;1.23;;;0.40;;
12665;SDS011;58531;59.050;17.416;2022-09-19T13:12:00;0.30;;;0.30;;
12665;SDS011;58531;59.050;17.416;2022-09-19T13:14:38;0.20;;;0.20;;
12665;SDS011;58531;59.050;17.416;2022-09-19T13:17:11;0.30;;;0.30;;
12665;SDS011;58531;59.050;17.416;2022-09-19T13:19:57;0.30;;;0.30;;
12665;SDS011;58531;59.050;17.416;2022-09-19T13:22:44;0.20;;;0.20;;
12665;SDS011;58531;59.050;17.416;2022-09-19T13:25:32;0.20;;;0.20;;
12665;SDS011;58531;59.050;17.416;2022-09-19T13:30:53;0.20;;;0.20;;
12665;SDS011;58531;59.050;17.416;2022-09-19T13:33:38;0.20;;;0.20;;
12665;SDS011;58531;59.050;17.416;2022-09-19T13:36:10;1.37;;;0.20;;
12665;SDS011;58531;59.050;17.416;2022-09-19T13:38:38;1.13;;;0.30;;
12665;SDS011;58531;59.050;17.416;2022-09-19T13:41:08;0.40;;;0.20;;
12665;SDS011;58531;59.050;17.416;2022-09-19T13:44:03;0.83;;;0.20;;
12665;SDS011;58531;59.050;17.416;2022-09-19T13:46:37;0.57;;;0.57;;
12665;SDS011;58531;59.050;17.416;2022-09-19T13:49:12;1.07;;;0.20;;
12665;SDS011;58531;59.050;17.416;2022-09-19T13:51:51;0.50;;;0.30;;
12665;SDS011;58531;59.050;17.416;2022-09-19T13:54:32;0.17;;;0.17;;
12665;SDS011;58531;59.050;17.416;2022-09-19T13:57:15;0.40;;;0.30;;
12665;SDS011;58531;59.050;17.416;2022-09-19T13:59:49;0.20;;;0.20;;
12665;SDS011;58531;59.050;17.416;2022-09-19T14:02:22;0.67;;;0.20;;
12665;SDS011;58531;59.050;17.416;2022-09-19T14:04:53;1.00;;;0.20;;
12665;SDS011;58531;59.050;17.416;2022-09-19T14:07:28;0.30;;;0.27;;
12665;SDS011;58531;59.050;17.416;2022-09-19T14:09:59;0.30;;;0.30;;
12665;SDS011;58531;59.050;17.416;2022-09-19T14:12:52;0.33;;;0.20;;
12665;SDS011;58531;59.050;17.416;2022-09-19T14:18:40;1.23;;;0.30;;
12665;SDS011;58531;59.050;17.416;2022-09-19T14:30:33;0.30;;;0.30;;
12665;SDS011;58531;59.050;17.416;2022-09-19T14:36:26;0.40;;;0.40;;
12665;SDS011;58531;59.050;17.416;2022-09-19T14:42:07;0.60;;;0.30;;
12665;SDS011;58531;59.050;17.416;2022-09-19T14:45:08;1.27;;;0.30;;
12665;SDS011;58531;59.050;17.416;2022-09-19T14:47:50;0.90;;;0.30;;
12665;SDS011;58531;59.050;17.416;2022-09-19T14:50:21;0.30;;;0.30;;
12665;SDS011;58531;59.050;17.416;2022-09-19T14:52:51;0.30;;;0.30;;
12665;SDS011;58531;59.050;17.416;2022-09-19T14:55:24;0.30;;;0.30;;
12665;SDS011;58531;59.050;17.416;2022-09-19T14:57:54;1.13;;;0.33;;
12665;SDS011;58531;59.050;17.416;2022-09-19T15:00:23;0.27;;;0.27;;
12665;SDS011;58531;59.050;17.416;2022-09-19T15:02:54;0.20;;;0.20;;
12665;SDS011;58531;59.050;17.416;2022-09-19T15:05:22;1.30;;;0.30;;
12665;SDS011;58531;59.050;17.416;2022-09-19T15:07:52;0.30;;;0.20;;
12665;SDS011;58531;59.050;17.416;2022-09-19T15:10:29;0.43;;;0.30;;
12665;SDS011;58531;59.050;17.416;2022-09-19T15:13:08;0.30;;;0.30;;
12665;SDS011;58531;59.050;17.416;2022-09-19T15:15:40;0.40;;;0.40;;
12665;SDS011;58531;59.050;17.416;2022-09-19T15:18:21;0.63;;;0.40;;
12665;SDS011;58531;59.050;17.416;2022-09-19T15:20:52;0.20;;;0.20;;
12665;SDS011;58531;59.050;17.416;2022-09-19T15:23:22;0.20;;;0.20;;
12665;SDS011;58531;59.050;17.416;2022-09-19T15:25:56;0.40;;;0.40;;
12665;SDS011;58531;59.050;17.416;2022-09-19T15:28:25;0.30;;;0.30;;
12665;SDS011;58531;59.050;17.416;2022-09-19T15:30:53;0.20;;;0.20;;
12665;SDS011;58531;59.050;17.416;2022-09-19T15:33:25;0.30;;;0.20;;
12665;SDS011;58531;59.050;17.416;2022-09-19T15:35:54;0.30;;;0.30;;
12665;SDS011;58531;59.050;17.416;2022-09-19T15:38:25;0.40;;;0.40;;